Hauptseite
METAR-TAF:

METAR-TAF

Flughäfen :

Fourchambault

Nevers, Frankreich

Breite: 47-00N, Länge: 003-06E, Höhe: 180 m

Beobachtung

Neuester Wetterbericht von vor 26 Minuten, um 13:00 UTC
Wind 11 kt aus West, variierte zwischen West/Südwest und Nordwest
Temperatur 25°C
Luftfeuchtigkeit 50%
Luftdruck 1019 hPa
Sichtweite 10 km oder mehr
Durchbrochene Bewölkung in der Höhe von 4600 ft
Durchbrochene Bewölkung in der Höhe von 6200 ft

METAR: LFQG 171300Z AUTO 27011KT 240V310 9999 BKN046 BKN062 25/14 Q1019

Zeit: 15:26 (13:26 UTC)


TAF: fehlend

Wetterbeobachtungen und Prognosen von mehr als 4000 Flughäfen (METAR und TAF Bericht).

Die verfügbaren Stationen werden durch gelbe und rote Markierungen auf der Karte dargestellt.

Führen Sie die Maus auf sie, um den Namen der Station zu sehen.

Darauf klicken, um die Beobachtung von Wetterbeobachtungen und Prognosen zu sehen.

Um die Karte zu ändern : klicken Sie auf den grünen Tasten mit einem schwarzen Kreuz Zum Vergrößern, auf den grünen Button mit einem Gedankenstrich zu verkleinern, oder auf die grünen Pfeile für benachbarte Karten.


METAR-TAF: